createdAt,value
2023-05-19T00:00:04.018Z,10.25
2023-05-19T00:01:04.100Z,10.25
2023-05-19T00:02:03.904Z,10.19
2023-05-19T00:03:03.643Z,10.19
2023-05-19T00:06:04.048Z,10.19
2023-05-19T00:07:04.936Z,10.19
2023-05-19T00:09:04.126Z,10.19
2023-05-19T00:10:04.437Z,10.19
2023-05-19T00:12:04.001Z,10.19
2023-05-19T00:13:03.613Z,10.12
2023-05-19T00:14:04.321Z,10.12
2023-05-19T00:15:04.061Z,10.12
2023-05-19T00:16:04.045Z,10.12
2023-05-19T00:17:04.336Z,10.12
2023-05-19T00:18:04.032Z,10.12
2023-05-19T00:19:04.216Z,10.06
2023-05-19T00:21:04.285Z,10.06
2023-05-19T00:22:04.007Z,10.06
2023-05-19T00:23:03.527Z,10.06
2023-05-19T00:25:04.015Z,10.00
2023-05-19T00:27:03.607Z,10.00
2023-05-19T00:28:04.173Z,10.00
2023-05-19T00:29:04.174Z,10.00
2023-05-19T00:30:03.709Z,10.00
2023-05-19T00:32:04.134Z,10.00
2023-05-19T00:33:03.822Z,9.94
2023-05-19T00:34:04.327Z,10.00
2023-05-19T00:35:03.687Z,9.94
2023-05-19T00:37:04.166Z,9.94
2023-05-19T00:38:03.768Z,9.94
2023-05-19T00:39:03.781Z,9.94
2023-05-19T00:40:04.281Z,9.94
2023-05-19T00:41:03.883Z,9.94
2023-05-19T00:43:04.010Z,9.94
2023-05-19T00:45:03.696Z,9.88
2023-05-19T00:46:03.781Z,9.88
2023-05-19T00:47:04.485Z,9.88
2023-05-19T00:48:03.718Z,9.88
2023-05-19T00:50:03.521Z,9.88
2023-05-19T00:51:04.425Z,9.88
2023-05-19T00:52:04.335Z,9.88
2023-05-19T00:54:04.414Z,9.81
2023-05-19T00:55:03.912Z,9.81
2023-05-19T00:56:04.023Z,9.81
2023-05-19T00:57:04.088Z,9.75
2023-05-19T00:59:03.536Z,9.75
2023-05-19T01:00:04.174Z,9.75
2023-05-19T01:02:04.019Z,9.69
2023-05-19T01:03:03.697Z,9.69
2023-05-19T01:04:04.309Z,9.69
2023-05-19T01:05:03.460Z,9.69
2023-05-19T01:07:04.082Z,9.69
2023-05-19T01:08:04.100Z,9.62
2023-05-19T01:09:04.404Z,9.62
2023-05-19T01:10:04.102Z,9.62
2023-05-19T01:11:04.109Z,9.62
2023-05-19T01:12:04.095Z,9.62
2023-05-19T01:13:03.594Z,9.62
2023-05-19T01:14:04.169Z,9.62
2023-05-19T01:16:03.913Z,9.56
2023-05-19T01:17:04.127Z,9.56
2023-05-19T01:18:03.903Z,9.56
2023-05-19T01:19:03.561Z,9.56
2023-05-19T01:20:04.077Z,9.56
2023-05-19T01:21:04.094Z,9.56
2023-05-19T01:22:04.165Z,9.50
2023-05-19T01:24:04.404Z,9.50
2023-05-19T01:25:04.021Z,9.50
2023-05-19T01:26:03.932Z,9.50
2023-05-19T01:27:03.924Z,9.44
2023-05-19T01:28:03.935Z,9.44
2023-05-19T01:29:04.500Z,9.44
2023-05-19T01:30:04.102Z,9.44
2023-05-19T01:31:04.116Z,9.44
2023-05-19T01:32:04.170Z,9.38
2023-05-19T01:33:04.447Z,9.38
2023-05-19T01:34:04.256Z,9.38
2023-05-19T01:36:04.240Z,9.38
2023-05-19T01:37:04.258Z,9.38
2023-05-19T01:39:03.768Z,9.38
2023-05-19T01:41:04.428Z,9.31
2023-05-19T01:42:04.005Z,9.31
2023-05-19T01:43:03.577Z,9.25
2023-05-19T01:44:03.647Z,9.25
2023-05-19T01:45:04.329Z,9.25
2023-05-19T01:46:03.847Z,9.25
2023-05-19T01:47:03.452Z,9.25
2023-05-19T01:48:04.091Z,9.25
2023-05-19T01:49:03.772Z,9.19
2023-05-19T01:51:04.346Z,9.19
2023-05-19T01:53:04.362Z,9.19
2023-05-19T01:54:03.772Z,9.19
2023-05-19T01:55:04.362Z,9.19
2023-05-19T01:56:04.890Z,9.19
2023-05-19T01:57:04.028Z,9.12
2023-05-19T01:58:04.022Z,9.12
2023-05-19T01:59:03.536Z,9.12
2023-05-19T02:01:04.294Z,9.06
2023-05-19T02:02:04.352Z,9.00
2023-05-19T02:06:04.197Z,9.00
2023-05-19T02:07:03.873Z,9.06
2023-05-19T02:09:03.555Z,9.00
2023-05-19T02:10:03.533Z,9.00
2023-05-19T02:11:03.540Z,9.00
2023-05-19T02:12:04.115Z,9.00
2023-05-19T02:13:03.608Z,9.00
2023-05-19T02:15:04.280Z,9.00
2023-05-19T02:16:04.044Z,9.00
2023-05-19T02:17:04.174Z,9.00
2023-05-19T02:18:03.871Z,9.00
2023-05-19T02:19:03.940Z,9.00
2023-05-19T02:20:03.550Z,9.00
2023-05-19T02:21:04.487Z,8.94
2023-05-19T02:23:03.605Z,8.94
2023-05-19T02:24:03.635Z,8.94
2023-05-19T02:25:04.164Z,8.94
2023-05-19T02:26:03.699Z,8.94
2023-05-19T02:28:04.414Z,8.94
2023-05-19T02:30:03.844Z,8.94
2023-05-19T02:32:04.119Z,8.88
2023-05-19T02:33:04.250Z,8.88
2023-05-19T02:34:03.612Z,8.88
2023-05-19T02:35:03.571Z,8.88
2023-05-19T02:36:04.498Z,8.88
2023-05-19T02:37:04.112Z,8.88
2023-05-19T02:38:04.193Z,8.81
2023-05-19T02:40:03.783Z,8.81
2023-05-19T02:41:04.324Z,8.81
2023-05-19T02:44:04.109Z,8.75
2023-05-19T02:45:03.607Z,8.75
2023-05-19T02:47:04.290Z,8.75
2023-05-19T02:48:03.906Z,8.69
2023-05-19T02:49:03.965Z,8.69
2023-05-19T02:50:03.847Z,8.69
2023-05-19T02:53:04.090Z,8.69
2023-05-19T02:54:03.776Z,8.62
2023-05-19T02:56:04.337Z,8.62
2023-05-19T02:57:03.851Z,8.56
2023-05-19T02:59:04.326Z,8.56
2023-05-19T03:00:03.922Z,8.56
2023-05-19T03:01:03.600Z,8.56
2023-05-19T03:02:04.204Z,8.50
2023-05-19T03:03:04.079Z,8.50
2023-05-19T03:04:04.250Z,8.50
2023-05-19T03:06:04.324Z,8.50
2023-05-19T03:07:03.857Z,8.44
2023-05-19T03:08:04.431Z,8.44
2023-05-19T03:09:04.095Z,8.44
2023-05-19T03:11:03.846Z,8.38
2023-05-19T03:12:04.409Z,8.38
2023-05-19T03:13:04.001Z,8.38
2023-05-19T03:14:03.747Z,8.38
2023-05-19T03:15:04.196Z,8.38
2023-05-19T03:16:04.113Z,8.38
2023-05-19T03:18:03.945Z,8.31
2023-05-19T03:19:03.638Z,8.31
2023-05-19T03:21:03.612Z,8.31
2023-05-19T03:23:04.413Z,8.56
2023-05-19T03:25:04.191Z,8.75
2023-05-19T03:26:03.686Z,8.69
2023-05-19T03:27:03.612Z,8.62
2023-05-19T03:28:03.707Z,8.69
2023-05-19T03:29:03.610Z,8.69
2023-05-19T03:30:06.449Z,8.62
2023-05-19T03:31:04.423Z,8.56
2023-05-19T03:32:04.575Z,8.50
2023-05-19T03:33:03.662Z,8.44
2023-05-19T03:34:04.241Z,8.44
2023-05-19T03:35:04.415Z,8.38
2023-05-19T03:36:03.629Z,8.38
2023-05-19T03:37:04.185Z,8.44
2023-05-19T03:38:04.259Z,8.44
2023-05-19T03:39:03.654Z,8.69
2023-05-19T03:41:04.347Z,8.81
2023-05-19T03:42:04.053Z,8.75
2023-05-19T03:43:03.935Z,8.69
2023-05-19T03:44:03.848Z,8.56
2023-05-19T03:45:04.433Z,8.50
2023-05-19T03:46:04.081Z,8.50
2023-05-19T03:48:03.747Z,8.44
2023-05-19T03:50:03.553Z,8.38
2023-05-19T03:51:04.162Z,8.31
2023-05-19T03:52:04.249Z,8.31
2023-05-19T03:53:04.191Z,8.25
2023-05-19T03:55:03.609Z,8.25
2023-05-19T03:56:04.337Z,8.25
2023-05-19T03:57:03.948Z,8.25
2023-05-19T03:59:04.220Z,8.25
2023-05-19T04:00:04.409Z,8.25
2023-05-19T04:02:03.785Z,8.25
2023-05-19T04:03:03.843Z,8.25
2023-05-19T04:04:04.397Z,8.25
2023-05-19T04:05:04.409Z,8.38
2023-05-19T04:06:04.101Z,8.38
2023-05-19T04:07:04.409Z,8.31
2023-05-19T04:08:03.924Z,8.38
2023-05-19T04:09:04.101Z,8.31
2023-05-19T04:10:03.687Z,8.31
2023-05-19T04:11:04.502Z,8.38
2023-05-19T04:13:04.092Z,8.38
2023-05-19T04:15:03.661Z,8.38
2023-05-19T04:16:04.415Z,8.44
2023-05-19T04:18:04.201Z,8.44
2023-05-19T04:19:04.495Z,8.44
2023-05-19T04:20:04.113Z,8.44
2023-05-19T04:22:04.258Z,8.44
2023-05-19T04:23:03.772Z,8.50
2023-05-19T04:24:04.476Z,8.50
2023-05-19T04:25:04.272Z,8.69
2023-05-19T04:26:03.961Z,8.94
2023-05-19T04:27:03.776Z,9.12
2023-05-19T04:28:03.771Z,9.31
2023-05-19T04:30:03.548Z,9.56
2023-05-19T04:31:04.304Z,9.50
2023-05-19T04:33:03.788Z,9.62
2023-05-19T04:35:03.857Z,9.50
2023-05-19T04:36:03.828Z,9.50
2023-05-19T04:37:03.863Z,9.44
2023-05-19T04:38:03.933Z,9.44
2023-05-19T04:39:03.940Z,9.38
2023-05-19T04:40:04.502Z,9.38
2023-05-19T04:42:03.444Z,9.38
2023-05-19T04:43:04.088Z,9.38
2023-05-19T04:44:04.083Z,9.38
2023-05-19T04:45:04.263Z,9.38
2023-05-19T04:46:03.848Z,9.38
2023-05-19T04:47:04.190Z,9.44
2023-05-19T04:48:04.307Z,9.44
2023-05-19T04:49:04.327Z,9.44
2023-05-19T04:50:04.010Z,9.44
2023-05-19T04:51:03.710Z,9.50
2023-05-19T04:52:04.320Z,9.50
2023-05-19T04:54:04.020Z,9.56
2023-05-19T04:55:04.007Z,9.56
2023-05-19T04:56:04.013Z,9.62
2023-05-19T04:57:04.036Z,9.69
2023-05-19T04:58:03.925Z,9.69
2023-05-19T04:59:03.937Z,9.75
2023-05-19T05:00:03.635Z,9.75
2023-05-19T05:01:03.630Z,9.81
2023-05-19T05:02:03.721Z,9.88
2023-05-19T05:03:03.857Z,9.88
2023-05-19T05:04:04.133Z,9.94
2023-05-19T05:05:04.351Z,10.00
2023-05-19T05:06:04.169Z,10.00
2023-05-19T05:08:03.701Z,10.12
2023-05-19T05:09:03.615Z,10.19
2023-05-19T05:10:03.686Z,10.19
2023-05-19T05:11:03.768Z,10.25
2023-05-19T05:13:04.088Z,10.31
2023-05-19T05:15:03.614Z,10.38
2023-05-19T05:16:04.129Z,10.44
2023-05-19T05:17:03.779Z,10.50
2023-05-19T05:18:04.401Z,10.56
2023-05-19T05:20:03.880Z,10.69
2023-05-19T05:21:03.532Z,10.75
2023-05-19T05:22:04.253Z,10.81
2023-05-19T05:24:04.417Z,11.00
2023-05-19T05:25:04.095Z,11.06
2023-05-19T05:26:04.328Z,11.06
2023-05-19T05:27:04.090Z,11.19
2023-05-19T05:28:03.683Z,11.19
2023-05-19T05:29:03.865Z,11.25
2023-05-19T05:30:04.413Z,11.31
2023-05-19T05:31:04.098Z,11.31
2023-05-19T05:32:03.646Z,11.44
2023-05-19T05:33:04.431Z,11.50
2023-05-19T05:34:04.085Z,11.56
2023-05-19T05:35:03.679Z,11.62
2023-05-19T05:36:03.781Z,11.75
2023-05-19T05:38:04.418Z,11.94
2023-05-19T05:40:03.919Z,12.12
2023-05-19T05:41:04.009Z,12.25
2023-05-19T05:42:03.784Z,12.31
2023-05-19T05:43:04.483Z,12.44
2023-05-19T05:44:04.484Z,12.50
2023-05-19T05:46:03.563Z,12.69
2023-05-19T05:48:04.362Z,12.88
2023-05-19T05:49:04.250Z,12.94
2023-05-19T05:51:03.690Z,13.06
2023-05-19T05:52:05.999Z,13.19
2023-05-19T05:54:03.786Z,13.38
2023-05-19T05:55:04.411Z,13.44
2023-05-19T05:56:04.493Z,13.56
2023-05-19T05:57:04.270Z,13.62
2023-05-19T05:58:04.332Z,13.62
2023-05-19T06:00:03.852Z,14.12
2023-05-19T06:01:03.532Z,14.31
2023-05-19T06:02:03.655Z,14.50
2023-05-19T06:03:04.392Z,14.69
2023-05-19T06:04:04.193Z,14.88
2023-05-19T06:05:04.708Z,15.00
2023-05-19T06:06:04.446Z,15.00
2023-05-19T06:07:04.507Z,15.12
2023-05-19T06:08:03.935Z,15.25
2023-05-19T06:10:04.250Z,15.75
2023-05-19T06:11:04.022Z,15.94
2023-05-19T06:13:03.690Z,16.38
2023-05-19T06:15:04.008Z,16.75
2023-05-19T06:16:03.887Z,16.75
2023-05-19T06:17:04.017Z,17.00
2023-05-19T06:18:03.752Z,17.19
2023-05-19T06:20:04.174Z,17.50
2023-05-19T06:21:03.780Z,17.56
2023-05-19T06:22:03.696Z,17.69
2023-05-19T06:24:04.404Z,17.88
2023-05-19T06:26:04.098Z,18.06
2023-05-19T06:28:03.539Z,18.38
2023-05-19T06:29:03.694Z,18.56
2023-05-19T06:31:04.292Z,18.88
2023-05-19T06:32:03.956Z,18.88
2023-05-19T06:33:03.591Z,18.94
2023-05-19T06:34:04.290Z,19.00
2023-05-19T06:35:03.936Z,19.38
2023-05-19T06:37:03.894Z,19.62
2023-05-19T06:38:03.538Z,19.81
2023-05-19T06:39:03.543Z,20.00
2023-05-19T06:40:04.099Z,20.06
2023-05-19T06:41:03.886Z,20.00
2023-05-19T06:42:04.434Z,20.19
2023-05-19T06:43:04.092Z,20.19
2023-05-19T06:45:03.629Z,20.38
2023-05-19T06:46:03.694Z,20.50
2023-05-19T06:47:03.744Z,20.69
2023-05-19T06:48:04.448Z,20.88
2023-05-19T06:50:03.959Z,21.25
2023-05-19T06:51:03.546Z,21.31
2023-05-19T06:52:03.612Z,21.44
2023-05-19T06:53:04.358Z,21.50
2023-05-19T06:55:04.359Z,21.62
2023-05-19T06:56:04.022Z,21.75
2023-05-19T06:58:04.441Z,22.00
2023-05-19T06:59:04.192Z,22.12
2023-05-19T07:01:03.857Z,22.31
2023-05-19T07:02:04.019Z,22.38
2023-05-19T07:03:03.681Z,22.44
2023-05-19T07:04:04.001Z,22.38
2023-05-19T07:05:03.617Z,22.38
2023-05-19T07:06:04.674Z,22.50
2023-05-19T07:07:03.776Z,22.56
2023-05-19T07:08:03.629Z,22.69
2023-05-19T07:09:03.721Z,22.69
2023-05-19T07:10:03.660Z,22.69
2023-05-19T07:11:04.274Z,22.62
2023-05-19T07:12:04.415Z,22.56
2023-05-19T07:14:03.628Z,22.38
2023-05-19T07:15:03.707Z,22.00
2023-05-19T07:16:04.473Z,21.81
2023-05-19T07:17:03.624Z,21.75
2023-05-19T07:18:04.288Z,21.62
2023-05-19T07:19:03.473Z,21.62
2023-05-19T07:20:04.189Z,21.69
2023-05-19T07:21:04.186Z,21.56
2023-05-19T07:22:04.340Z,21.38
2023-05-19T07:23:04.421Z,21.19
2023-05-19T07:25:03.540Z,21.00
2023-05-19T07:26:04.106Z,20.94
2023-05-19T07:28:04.422Z,20.88
2023-05-19T07:29:04.351Z,21.00
2023-05-19T07:31:03.694Z,20.81
2023-05-19T07:32:04.564Z,20.75
2023-05-19T07:33:04.294Z,20.56
2023-05-19T07:35:03.633Z,20.31
2023-05-19T07:36:04.385Z,20.25
2023-05-19T07:37:04.028Z,20.19
2023-05-19T07:38:03.619Z,20.19
2023-05-19T07:39:03.902Z,20.06
2023-05-19T07:40:03.654Z,19.88
2023-05-19T07:41:04.105Z,19.69
2023-05-19T07:42:03.876Z,19.69
2023-05-19T07:43:04.494Z,19.62
2023-05-19T07:44:04.017Z,19.69
2023-05-19T07:46:03.594Z,19.62
2023-05-19T07:47:04.509Z,19.62
2023-05-19T07:49:03.779Z,19.56
2023-05-19T07:50:04.342Z,19.44
2023-05-19T07:51:04.108Z,19.44
2023-05-19T07:52:03.855Z,19.31
2023-05-19T07:53:03.550Z,19.25
2023-05-19T07:54:03.792Z,19.25
2023-05-19T07:56:04.495Z,19.25
2023-05-19T07:58:04.110Z,19.19
2023-05-19T07:59:04.191Z,19.19
2023-05-19T08:00:04.102Z,19.19
2023-05-19T08:01:04.216Z,19.25
2023-05-19T08:02:03.889Z,19.19
2023-05-19T08:03:04.153Z,19.25
2023-05-19T08:04:03.826Z,19.25
2023-05-19T08:05:03.773Z,19.12
2023-05-19T08:06:03.859Z,19.06
2023-05-19T08:07:04.500Z,19.00
2023-05-19T08:08:04.273Z,19.00
2023-05-19T08:09:04.095Z,18.88
2023-05-19T08:10:03.707Z,18.81
2023-05-19T08:11:04.448Z,18.75
2023-05-19T08:13:04.104Z,18.75
2023-05-19T08:14:03.797Z,18.81
2023-05-19T08:16:04.116Z,18.62
2023-05-19T08:17:03.769Z,18.56
2023-05-19T08:18:03.890Z,18.44
2023-05-19T08:20:03.785Z,18.44
2023-05-19T08:21:03.640Z,18.38
2023-05-19T08:23:04.181Z,18.31
2023-05-19T08:25:03.565Z,18.19
2023-05-19T08:26:04.034Z,18.19
2023-05-19T08:27:03.614Z,18.25
2023-05-19T08:28:03.718Z,18.25
2023-05-19T08:29:04.339Z,18.25
2023-05-19T08:30:04.155Z,18.31
2023-05-19T08:32:03.792Z,18.31
2023-05-19T08:33:03.663Z,18.38
2023-05-19T08:34:04.278Z,18.38
2023-05-19T08:35:03.927Z,18.44
2023-05-19T08:36:04.015Z,18.50
2023-05-19T08:37:03.556Z,18.50
2023-05-19T08:38:03.629Z,18.50
2023-05-19T08:39:04.185Z,18.50
2023-05-19T08:41:04.364Z,18.56
2023-05-19T08:42:04.117Z,18.56
2023-05-19T08:44:05.410Z,18.31
2023-05-19T08:45:04.492Z,18.19
2023-05-19T08:47:04.317Z,18.12
2023-05-19T08:48:03.976Z,18.12
2023-05-19T08:49:04.168Z,18.06
2023-05-19T08:50:04.177Z,18.06
2023-05-19T08:52:04.353Z,18.19
2023-05-19T08:53:04.029Z,18.19
2023-05-19T08:56:04.265Z,18.50
2023-05-19T08:57:04.350Z,18.50
2023-05-19T08:59:04.176Z,18.38
2023-05-19T09:01:04.277Z,18.50
2023-05-19T09:03:17.209Z,18.31
2023-05-19T09:05:04.421Z,18.12
2023-05-19T09:06:04.285Z,18.06
2023-05-19T09:07:03.964Z,18.06
2023-05-19T09:08:03.633Z,18.19
2023-05-19T09:09:03.695Z,18.19
2023-05-19T09:10:04.247Z,18.12
2023-05-19T09:12:04.415Z,18.06
2023-05-19T09:13:04.018Z,18.06
2023-05-19T09:14:04.017Z,17.94
2023-05-19T09:16:03.820Z,17.75
2023-05-19T09:17:04.191Z,17.75
2023-05-19T09:18:04.243Z,17.69
2023-05-19T09:19:03.889Z,17.75
2023-05-19T09:21:04.001Z,17.88
2023-05-19T09:22:04.105Z,17.81
2023-05-19T09:24:03.767Z,17.81
2023-05-19T09:25:04.324Z,17.75
2023-05-19T09:26:04.022Z,17.69
2023-05-19T09:27:03.688Z,17.69
2023-05-19T09:29:04.496Z,17.62
2023-05-19T09:31:03.607Z,17.50
2023-05-19T09:32:04.391Z,17.50
2023-05-19T09:33:04.076Z,17.50
2023-05-19T09:35:04.257Z,17.69
2023-05-19T09:36:04.269Z,17.75
2023-05-19T09:38:04.168Z,17.81
2023-05-19T09:39:04.259Z,17.81
2023-05-19T09:40:03.862Z,17.69
2023-05-19T09:42:04.106Z,17.62
2023-05-19T09:44:03.845Z,17.69
2023-05-19T09:45:03.873Z,17.75
2023-05-19T09:46:03.583Z,17.69
2023-05-19T09:48:04.221Z,17.69
2023-05-19T09:50:03.935Z,17.56
2023-05-19T09:52:03.624Z,17.75
2023-05-19T09:53:04.350Z,17.75
2023-05-19T09:54:03.852Z,17.75
2023-05-19T09:55:04.428Z,17.75
2023-05-19T09:56:04.097Z,17.75
2023-05-19T09:57:03.707Z,17.75
2023-05-19T09:58:04.355Z,17.62
2023-05-19T10:01:03.783Z,17.62
2023-05-19T10:02:04.418Z,17.62
2023-05-19T10:04:04.501Z,17.75
2023-05-19T10:05:03.836Z,17.69
2023-05-19T10:06:04.442Z,17.62
2023-05-19T10:07:04.096Z,17.50
2023-05-19T10:10:04.431Z,17.44
2023-05-19T10:11:03.933Z,17.50
2023-05-19T10:12:03.636Z,17.56
2023-05-19T10:13:04.196Z,17.62
2023-05-19T10:14:04.199Z,17.69
2023-05-19T10:15:03.765Z,17.75
2023-05-19T10:16:04.314Z,17.69
2023-05-19T10:17:05.436Z,17.62
2023-05-19T10:18:04.393Z,17.62
2023-05-19T10:19:04.323Z,17.62
2023-05-19T10:21:03.835Z,17.50
2023-05-19T10:23:03.475Z,17.50
2023-05-19T10:24:04.266Z,17.56
2023-05-19T10:25:03.928Z,17.56
2023-05-19T10:26:03.915Z,17.62
2023-05-19T10:28:04.410Z,17.88
2023-05-19T10:29:04.002Z,17.88
2023-05-19T10:30:04.130Z,17.88
2023-05-19T10:31:03.778Z,17.88
2023-05-19T10:33:04.498Z,17.81
2023-05-19T10:34:04.003Z,17.81
2023-05-19T10:36:04.340Z,18.06
2023-05-19T10:38:03.700Z,18.12
2023-05-19T10:40:04.171Z,18.06
2023-05-19T10:41:03.999Z,18.00
2023-05-19T10:43:04.115Z,17.94
2023-05-19T10:44:04.089Z,17.88
2023-05-19T10:45:04.275Z,17.88
2023-05-19T10:46:04.002Z,17.88
2023-05-19T10:48:04.285Z,17.75
2023-05-19T10:49:04.353Z,17.69
2023-05-19T10:50:04.018Z,17.69
2023-05-19T10:52:03.572Z,17.81
2023-05-19T10:53:04.086Z,17.88
2023-05-19T10:55:03.806Z,17.88
2023-05-19T10:57:04.345Z,18.06
2023-05-19T10:59:03.608Z,18.19
2023-05-19T11:00:04.009Z,18.06
2023-05-19T11:01:04.023Z,18.06
2023-05-19T11:02:03.734Z,18.00
2023-05-19T11:03:03.951Z,18.00
2023-05-19T11:04:04.207Z,18.00
2023-05-19T11:05:03.548Z,17.94
2023-05-19T11:06:04.173Z,18.00
2023-05-19T11:07:03.713Z,18.00
2023-05-19T11:08:03.800Z,18.00
2023-05-19T11:09:04.414Z,17.94
2023-05-19T11:10:04.014Z,17.88
2023-05-19T11:11:03.784Z,17.94
2023-05-19T11:12:03.688Z,17.94
2023-05-19T11:14:04.418Z,17.88
2023-05-19T11:16:03.853Z,17.81
2023-05-19T11:17:03.963Z,17.81
2023-05-19T11:18:03.850Z,17.94
2023-05-19T11:19:03.553Z,18.00
2023-05-19T11:20:03.980Z,18.06
2023-05-19T11:21:03.691Z,18.12
2023-05-19T11:23:04.388Z,18.19
2023-05-19T11:24:04.223Z,18.12
2023-05-19T11:26:03.698Z,18.00
2023-05-19T11:28:04.417Z,17.88
2023-05-19T11:29:04.114Z,17.88
2023-05-19T11:31:03.773Z,17.69
2023-05-19T11:32:03.596Z,17.69
2023-05-19T11:33:03.810Z,17.62
2023-05-19T11:34:04.155Z,17.69
2023-05-19T11:35:04.038Z,17.62
2023-05-19T11:36:04.093Z,17.69
2023-05-19T11:37:04.000Z,17.56
2023-05-19T11:38:04.035Z,17.62
2023-05-19T11:39:04.103Z,17.69
2023-05-19T11:42:04.484Z,17.75
2023-05-19T11:43:04.084Z,17.69
2023-05-19T11:44:04.253Z,17.62
2023-05-19T11:45:04.332Z,17.69
2023-05-19T11:46:04.359Z,17.62
2023-05-19T11:48:03.988Z,17.56
2023-05-19T11:49:03.771Z,17.50
2023-05-19T11:50:03.859Z,17.44
2023-05-19T11:51:03.841Z,17.44
2023-05-19T11:52:03.534Z,17.44
2023-05-19T11:53:04.258Z,17.50
2023-05-19T11:54:04.344Z,17.56
2023-05-19T11:55:03.770Z,17.56
2023-05-19T11:56:03.635Z,17.62
2023-05-19T11:57:04.177Z,17.75
2023-05-19T11:58:05.363Z,17.75
2023-05-19T12:00:04.494Z,17.75
2023-05-19T12:01:04.165Z,17.69
2023-05-19T12:02:03.866Z,17.75
2023-05-19T12:03:03.658Z,17.81
2023-05-19T12:04:03.564Z,17.81
2023-05-19T12:06:03.560Z,17.94
2023-05-19T12:07:04.100Z,18.00
2023-05-19T12:09:05.407Z,18.19
2023-05-19T12:11:03.628Z,18.25
2023-05-19T12:12:04.416Z,18.19
2023-05-19T12:13:03.934Z,18.19
2023-05-19T12:14:03.463Z,18.25
2023-05-19T12:15:03.528Z,18.25
2023-05-19T12:16:03.634Z,18.19
2023-05-19T12:18:04.459Z,18.19
2023-05-19T12:20:04.097Z,18.31
2023-05-19T12:21:03.938Z,18.38
2023-05-19T12:22:04.429Z,18.44
2023-05-19T12:24:03.619Z,18.50
2023-05-19T12:25:04.251Z,18.56
2023-05-19T12:26:03.932Z,18.62
2023-05-19T12:27:04.246Z,18.62
2023-05-19T12:28:04.170Z,18.69
2023-05-19T12:30:04.438Z,18.69
2023-05-19T12:31:04.086Z,18.56
2023-05-19T12:32:03.913Z,18.50
2023-05-19T12:33:04.492Z,18.38
2023-05-19T12:34:04.166Z,18.38
2023-05-19T12:35:03.942Z,18.25
2023-05-19T12:36:03.921Z,18.19
2023-05-19T12:37:03.950Z,18.12
2023-05-19T12:39:03.683Z,18.06
2023-05-19T12:40:04.354Z,18.06
2023-05-19T12:41:04.488Z,18.06
2023-05-19T12:43:04.121Z,18.00
2023-05-19T12:44:04.099Z,18.12
2023-05-19T12:45:04.108Z,18.19
2023-05-19T12:46:03.794Z,18.19
2023-05-19T12:47:03.534Z,18.19
2023-05-19T12:48:03.643Z,18.12
2023-05-19T12:51:03.535Z,18.25
2023-05-19T12:52:06.189Z,18.31
2023-05-19T12:53:04.323Z,18.31
2023-05-19T12:55:03.987Z,18.25
2023-05-19T12:56:03.936Z,18.31
2023-05-19T12:57:03.543Z,18.31
2023-05-19T12:58:03.767Z,18.25
2023-05-19T12:59:03.863Z,18.31
2023-05-19T13:00:03.538Z,18.25
2023-05-19T13:01:04.459Z,18.31
2023-05-19T13:02:03.868Z,18.31
2023-05-19T13:03:04.468Z,18.25
2023-05-19T13:04:06.185Z,18.25
2023-05-19T13:06:04.093Z,18.38
2023-05-19T13:07:04.257Z,18.50
2023-05-19T13:08:04.037Z,18.56
2023-05-19T13:09:03.923Z,18.56
2023-05-19T13:10:04.013Z,18.50
2023-05-19T13:11:04.180Z,18.50
2023-05-19T13:13:04.423Z,18.44
2023-05-19T13:14:04.004Z,18.38
2023-05-19T13:15:04.006Z,18.38
2023-05-19T13:17:04.249Z,18.44
2023-05-19T13:18:04.127Z,18.44
2023-05-19T13:19:03.784Z,18.44
2023-05-19T13:20:04.352Z,18.44
2023-05-19T13:21:04.106Z,18.50
2023-05-19T13:23:04.334Z,18.50
2023-05-19T13:24:03.921Z,18.56
2023-05-19T13:25:04.107Z,18.56
2023-05-19T13:26:03.863Z,18.50
2023-05-19T13:27:04.505Z,18.44
2023-05-19T13:28:04.004Z,18.44
2023-05-19T13:29:03.615Z,18.44
2023-05-19T13:30:04.344Z,18.44
2023-05-19T13:31:03.921Z,18.31
2023-05-19T13:32:03.544Z,18.38
2023-05-19T13:33:03.663Z,18.38
2023-05-19T13:34:04.253Z,18.38
2023-05-19T13:36:03.702Z,18.38
2023-05-19T13:37:03.836Z,18.38
2023-05-19T13:38:03.613Z,18.31
2023-05-19T13:40:04.216Z,18.44
2023-05-19T13:41:03.936Z,18.44
2023-05-19T13:42:03.458Z,18.50
2023-05-19T13:44:03.812Z,18.44
2023-05-19T13:45:04.435Z,18.44
2023-05-19T13:46:04.045Z,18.44
2023-05-19T13:47:03.966Z,18.50
2023-05-19T13:48:04.179Z,18.56
2023-05-19T13:49:04.194Z,18.62
2023-05-19T13:50:03.863Z,18.56
2023-05-19T13:51:03.560Z,18.50
2023-05-19T13:52:03.534Z,18.50
2023-05-19T13:53:03.620Z,18.50
2023-05-19T13:54:04.342Z,18.50
2023-05-19T13:56:04.325Z,18.44
2023-05-19T13:57:03.961Z,18.38
2023-05-19T13:58:04.020Z,18.38
2023-05-19T13:59:03.778Z,18.38
2023-05-19T14:00:04.562Z,18.44
2023-05-19T14:01:03.623Z,18.44
2023-05-19T14:02:04.218Z,18.44
2023-05-19T14:03:04.097Z,18.44
2023-05-19T14:04:04.431Z,18.38
2023-05-19T14:05:03.947Z,18.38
2023-05-19T14:06:03.859Z,18.31
2023-05-19T14:07:03.545Z,18.31
2023-05-19T14:08:04.098Z,18.31
2023-05-19T14:09:04.186Z,18.38
2023-05-19T14:10:04.381Z,18.38
2023-05-19T14:11:04.246Z,18.44
2023-05-19T14:12:03.877Z,18.50
2023-05-19T14:13:29.485Z,18.56
2023-05-19T14:15:04.357Z,18.62
2023-05-19T14:16:03.907Z,18.62
2023-05-19T14:17:03.724Z,18.69
2023-05-19T14:18:04.926Z,18.75
2023-05-19T14:19:04.148Z,18.75
2023-05-19T14:20:03.724Z,18.88
2023-05-19T14:21:04.198Z,18.81
2023-05-19T14:22:04.171Z,18.81
2023-05-19T14:23:04.355Z,18.81
2023-05-19T14:24:03.928Z,18.75
2023-05-19T14:25:03.625Z,18.88
2023-05-19T14:26:04.488Z,18.94
2023-05-19T14:27:04.026Z,18.94
2023-05-19T14:28:04.095Z,18.88
2023-05-19T14:29:04.757Z,18.81
2023-05-19T14:30:03.837Z,18.81
2023-05-19T14:31:04.507Z,18.75
2023-05-19T14:33:04.375Z,18.69
2023-05-19T14:34:03.856Z,18.69
2023-05-19T14:35:03.529Z,18.69
2023-05-19T14:36:04.158Z,18.62
2023-05-19T14:37:03.771Z,18.62
2023-05-19T14:39:04.347Z,18.62
2023-05-19T14:40:04.008Z,18.56
2023-05-19T14:41:03.601Z,18.56
2023-05-19T14:42:04.414Z,18.62
2023-05-19T14:43:04.423Z,18.62
2023-05-19T14:44:04.007Z,18.62
2023-05-19T14:45:04.116Z,18.62
2023-05-19T14:46:04.339Z,18.69
2023-05-19T14:47:04.051Z,18.75
2023-05-19T14:48:04.384Z,18.81
2023-05-19T14:51:04.413Z,18.81
2023-05-19T14:53:04.106Z,18.88
2023-05-19T14:55:04.424Z,18.94
2023-05-19T14:58:10.150Z,18.81
2023-05-19T14:59:04.014Z,18.81
2023-05-19T15:00:04.032Z,18.75
2023-05-19T15:01:03.649Z,18.69
2023-05-19T15:02:03.691Z,18.62
2023-05-19T15:03:04.214Z,18.62
2023-05-19T15:04:04.509Z,18.62
2023-05-19T15:05:04.403Z,18.62
2023-05-19T15:06:04.508Z,18.62
2023-05-19T15:08:06.132Z,18.62
2023-05-19T15:09:04.175Z,18.69
2023-05-19T15:10:03.860Z,18.62
2023-05-19T15:11:03.546Z,18.56
2023-05-19T15:13:04.170Z,18.56
2023-05-19T15:14:03.688Z,18.56
2023-05-19T15:15:04.366Z,18.56
2023-05-19T15:16:15.988Z,18.56
2023-05-19T15:18:03.839Z,18.56
2023-05-19T15:19:03.627Z,18.56
2023-05-19T15:20:03.706Z,18.50
2023-05-19T15:21:03.939Z,18.50
2023-05-19T15:22:03.526Z,18.50
2023-05-19T15:24:04.499Z,18.44
2023-05-19T15:25:04.015Z,18.44
2023-05-19T15:26:03.708Z,18.44
2023-05-19T15:27:03.537Z,18.38
2023-05-19T15:28:04.097Z,18.38
2023-05-19T15:29:04.214Z,18.31
2023-05-19T15:30:04.192Z,18.38
2023-05-19T15:31:03.892Z,18.38
2023-05-19T15:32:04.490Z,18.44
2023-05-19T15:34:03.702Z,18.44
2023-05-19T15:35:04.336Z,18.38
2023-05-19T15:36:03.871Z,18.31
2023-05-19T15:38:04.186Z,18.31
2023-05-19T15:39:03.843Z,18.38
2023-05-19T15:40:03.542Z,18.38
2023-05-19T15:41:04.375Z,18.31
2023-05-19T15:42:03.927Z,18.25
2023-05-19T15:43:03.647Z,18.25
2023-05-19T15:44:04.491Z,18.19
2023-05-19T15:45:04.334Z,18.25
2023-05-19T15:46:04.463Z,18.19
2023-05-19T15:47:03.770Z,18.25
2023-05-19T15:48:03.553Z,18.19
2023-05-19T15:49:04.082Z,18.12
2023-05-19T15:51:04.418Z,18.12
2023-05-19T15:53:04.429Z,18.12
2023-05-19T15:54:04.023Z,18.19
2023-05-19T15:55:03.618Z,18.12
2023-05-19T15:56:04.781Z,18.12
2023-05-19T15:57:03.949Z,18.19
2023-05-19T15:58:04.441Z,18.19
2023-05-19T15:59:03.702Z,18.12
2023-05-19T16:00:04.180Z,18.06
2023-05-19T16:01:03.698Z,18.00
2023-05-19T16:02:03.825Z,18.00
2023-05-19T16:03:04.126Z,18.00
2023-05-19T16:04:03.954Z,18.00
2023-05-19T16:05:04.008Z,18.00
2023-05-19T16:06:04.106Z,18.00
2023-05-19T16:08:03.634Z,18.00
2023-05-19T16:09:04.187Z,17.94
2023-05-19T16:11:03.455Z,17.94
2023-05-19T16:12:04.201Z,17.88